Nyk Olympus — 3EOS7 — position and weather

sailwx.info

Track history (hours):
 
Tides and Currents Weather Stations Pressure Air Temp Water Temp Dewpoint Dewpoint Depression Visibility Wind Speed Wind Dir Waves Ship Positions

Nyk Olympus

Last reported at 2017-Dec-12 22:08 UTC. Time now 2017-Dec-15 08:29 UTC.
Position N 01°23' E 103°13'.

Length 335 m; draft 12.6 m.

Type: Other ship. MMSI: 372478000.

Date/timePositionNaut miles runAvg speedWind from/ knotsBaromVisibWave heightAir tempDewpointWater temp
2017-Dec-12 22:08N 01°23' E 103°13'218.8
2017-Dec-12 22:00N 01°22' E 103°15'918.5
2017-Dec-12 21:30N 01°16' E 103°22'918.9
2017-Dec-12 21:00N 01°12' E 103°30'815.7
2017-Dec-12 20:30N 01°12' E 103°38'4 8.0
2017-Dec-12 20:00N 01°14' E 103°42'510.0
2017-Dec-12 19:30N 01°16' E 103°46'1 1.7
2017-Dec-12 18:58N 01°17' E 103°47'0 0.0
2017-Dec-12 18:28N 01°17' E 103°47'0 0.0
2017-Dec-12 17:58N 01°17' E 103°47'0 0.0
2017-Dec-12 17:28N 01°17' E 103°47'0 0.0
2017-Dec-12 16:58N 01°17' E 103°47'0 0.0
2017-Dec-12 16:28N 01°17' E 103°47'0 0.0
2017-Dec-12 15:58N 01°17' E 103°47'0 0.0
2017-Dec-12 15:28N 01°17' E 103°47'0 0.0
2017-Dec-12 14:58N 01°17' E 103°47'0 0.0
2017-Dec-12 14:28N 01°17' E 103°47'0 0.0
2017-Dec-12 13:58N 01°17' E 103°47'0 0.0
2017-Dec-12 13:25N 01°17' E 103°47'0 0.0
2017-Dec-12 12:58N 01°17' E 103°47'0 0.0
2017-Dec-12 12:28N 01°17' E 103°47'0 0.0
2017-Dec-12 11:58N 01°17' E 103°47'0 0.0
2017-Dec-12 11:19N 01°17' E 103°47'0 0.0
2017-Dec-12 10:58N 01°17' E 103°47'0 0.0
2017-Dec-12 10:28N 01°17' E 103°47'0 0.0
2017-Dec-12 09:58N 01°17' E 103°47'0 0.0
2017-Dec-12 09:28N 01°17' E 103°47'0 0.0
2017-Dec-12 08:58N 01°17' E 103°47'0 0.0
2017-Dec-12 08:28N 01°17' E 103°47'0 0.0
2017-Dec-12 07:58N 01°17' E 103°47'0 0.0
2017-Dec-12 07:28N 01°17' E 103°47'0 0.0
2017-Dec-12 06:58N 01°17' E 103°47'0 0.0
2017-Dec-12 06:28N 01°17' E 103°47'0 0.0
2017-Dec-12 05:58N 01°17' E 103°47'0 0.0
2017-Dec-12 05:28N 01°17' E 103°47'0 0.0
2017-Dec-12 04:58N 01°17' E 103°47'0 0.0
2017-Dec-12 04:28N 01°17' E 103°47'0 0.0
2017-Dec-12 03:58N 01°17' E 103°47'0 0.0
2017-Dec-12 03:25N 01°17' E 103°47'0 0.0
2017-Dec-12 02:58N 01°17' E 103°47'0 0.0
2017-Dec-12 02:28N 01°17' E 103°47'0 0.0
2017-Dec-12 01:55N 01°17' E 103°47'0 0.0
2017-Dec-12 01:28N 01°17' E 103°47'0 0.0
2017-Dec-12 00:58N 01°17' E 103°47'0 0.0
2017-Dec-12 00:28N 01°17' E 103°47'0 0.0
2017-Dec-11 23:58N 01°17' E 103°47'0 0.0
2017-Dec-11 23:25N 01°17' E 103°47'0 0.0
2017-Dec-11 22:52N 01°17' E 103°47'0 0.1
2017-Dec-11 22:28N 01°17' E 103°47'0 0.1
2017-Dec-11 21:58N 01°17' E 103°47'0 0.0
2017-Dec-11 21:28N 01°17' E 103°47'0 0.0
2017-Dec-11 20:58N 01°17' E 103°47'0 0.0
2017-Dec-11 20:28N 01°17' E 103°47'0 0.0
2017-Dec-11 19:58N 01°17' E 103°47'0 0.0
2017-Dec-11 19:28N 01°17' E 103°47'0 0.0
2017-Dec-11 18:58N 01°17' E 103°47'0 0.0
2017-Dec-11 18:28N 01°17' E 103°47'0 0.0
2017-Dec-11 17:55N 01°17' E 103°47'0 0.0
2017-Dec-11 17:28N 01°17' E 103°47'0 0.0
2017-Dec-11 16:58N 01°17' E 103°47'0 0.0
2017-Dec-11 16:28N 01°17' E 103°47'0 0.0
2017-Dec-11 15:58N 01°17' E 103°47'0 0.0
2017-Dec-11 15:28N 01°17' E 103°47'0 0.0
2017-Dec-11 14:58N 01°17' E 103°47'0 0.0
2017-Dec-11 14:28N 01°17' E 103°47'0 0.0
2017-Dec-11 13:58N 01°17' E 103°47'0 0.0
2017-Dec-11 13:25N 01°17' E 103°47'0 0.0
2017-Dec-11 13:00N 01°17' E 103°47'0 0.7
2017-Dec-11 12:30N 01°16' E 103°47'0 0.5
2017-Dec-11 12:00N 01°16' E 103°47'2 4.6
2017-Dec-11 11:30N 01°14' E 103°47'4 7.9
2017-Dec-11 11:00N 01°12' E 103°51'4 8.0
2017-Dec-11 10:30N 01°14' E 103°55'3 5.2
2017-Dec-11 10:00N 01°15' E 103°57'4 7.1
2017-Dec-11 09:30N 01°16' E 104°01'4 7.4
2017-Dec-11 08:59N 01°16' E 104°04'4 7.6
2017-Dec-11 08:29N 01°17' E 104°08'4 7.6
2017-Dec-11 07:58N 01°17' E 104°12'6 8.8
2017-Dec-11 07:14N 01°19' E 104°18'310.2
2017-Dec-11 06:55N 01°21' E 104°21'  
2017-Dec-06 03:00N 31°30' E 135°06'339 8.3 320 / 211020.0 5.4 12.0 6.217.0
2017-Dec-04 10:05N 35°36' E 139°46'0 0.0
2017-Dec-04 09:56N 35°36' E 139°46'0 0.0
2017-Dec-04 09:26N 35°36' E 139°46'0 0.0
2017-Dec-04 08:59N 35°36' E 139°46'0 0.0
2017-Dec-04 08:17N 35°36' E 139°46'0 0.0
2017-Dec-04 07:29N 35°36' E 139°46'0 0.0
2017-Dec-04 06:56N 35°36' E 139°46'0 0.0
2017-Dec-04 06:05N 35°36' E 139°46'0 0.0
2017-Dec-04 04:23N 35°36' E 139°46'0 0.0
2017-Dec-04 02:56N 35°36' E 139°46'0 0.0
2017-Dec-04 02:29N 35°36' E 139°46'0 0.0
2017-Dec-04 01:59N 35°36' E 139°46'0 0.0
2017-Dec-04 01:29N 35°36' E 139°46'0 0.0
2017-Dec-04 00:59N 35°36' E 139°46'0 0.0
2017-Dec-04 00:17N 35°36' E 139°46'0 0.0
2017-Dec-03 23:59N 35°36' E 139°46'0 0.0
2017-Dec-03 23:17N 35°36' E 139°46'0 0.0
2017-Dec-03 22:59N 35°36' E 139°46'0 0.0
2017-Dec-03 22:29N 35°36' E 139°46'0 0.0
2017-Dec-03 21:59N 35°36' E 139°46'0 0.0
2017-Dec-03 21:26N 35°36' E 139°46'0 0.0
2017-Dec-03 20:53N 35°36' E 139°46'0 0.0
2017-Dec-03 20:26N 35°36' E 139°46'0 0.0
2017-Dec-03 19:59N 35°36' E 139°46'0 0.0
2017-Dec-03 19:29N 35°36' E 139°46'0 0.0
2017-Dec-03 18:59N 35°36' E 139°46'0 0.0
2017-Dec-03 18:29N 35°36' E 139°46'0 0.0
2017-Dec-03 17:59N 35°36' E 139°46'0 0.0
2017-Dec-03 17:29N 35°36' E 139°46'0 0.0
2017-Dec-03 16:59N 35°36' E 139°46'0 0.0
2017-Dec-03 16:29N 35°36' E 139°46'0 0.0
2017-Dec-03 15:56N 35°36' E 139°46'0 0.0
2017-Dec-03 15:08N 35°36' E 139°46'0 0.0
2017-Dec-03 14:50N 35°36' E 139°46'0 0.0
2017-Dec-03 13:47N 35°36' E 139°46'0 0.0
2017-Dec-03 13:29N 35°36' E 139°46'1 1.1
2017-Dec-03 13:00N 35°35' E 139°47'4 8.0
2017-Dec-03 12:31N 35°33' E 139°51'510.0
2017-Dec-03 12:01N 35°28' E 139°51'714.6
2017-Dec-03 11:30N 35°22' E 139°45'611.5
2017-Dec-03 11:00N 35°17' E 139°46'612.2
2017-Dec-03 10:30N 35°11' E 139°47'510.2
2017-Dec-03 10:00N 35°06' E 139°45'918.7
2017-Dec-03 09:30N 34°57' E 139°40'919.0
2017-Dec-03 09:00N 34°48' E 139°36'1119.9
2017-Dec-03 08:26N 34°38' E 139°30'2721.2
2017-Dec-03 07:09N 34°33' E 138°58'621.0
2017-Dec-03 06:51N 34°33' E 138°50'720.1
2017-Dec-03 06:30N 34°38' E 138°44'1019.7
2017-Dec-03 06:00N 34°46' E 138°38'919.2
2017-Dec-03 05:31N 34°55' E 138°35'713.8
2017-Dec-03 05:00N 35°01' E 138°32'1 1.8
2017-Dec-03 04:30N 35°02' E 138°31'0 0.6
2017-Dec-03 03:59N 35°02' E 138°31'0 0.0
2017-Dec-03 03:29N 35°02' E 138°31'0 0.0
2017-Dec-03 02:59N 35°02' E 138°31'0 0.0
2017-Dec-03 02:29N 35°02' E 138°31'0 0.0
2017-Dec-03 01:59N 35°02' E 138°31'0 0.0
2017-Dec-03 01:29N 35°02' E 138°31'0 0.0
2017-Dec-03 00:56N 35°02' E 138°31'0 0.0
2017-Dec-03 00:29N 35°02' E 138°31'0 0.0
2017-Dec-02 23:56N 35°02' E 138°31'0 0.0
2017-Dec-02 23:29N 35°02' E 138°31'0 0.0
2017-Dec-02 22:59N 35°02' E 138°31'0 0.0
2017-Dec-02 22:29N 35°02' E 138°31'  
Track history (hours):
 
Tides and Currents Weather Stations Pressure Air Temp Water Temp Dewpoint Dewpoint Depression Visibility Wind Speed Wind Dir Waves Ship Positions

Nyk Olympus

Last reported at 2017-Dec-12 22:08 UTC. Time now 2017-Dec-15 08:29 UTC.
Position N 01°23' E 103°13'.

Length 335 m; draft 12.6 m.

Type: Other ship. MMSI: 372478000.

Date/timePositionNaut miles runAvg speedWind from/ knotsBaromVisibWave heightAir tempDewpointWater temp
2017-Dec-12 22:08N 01°23' E 103°13'218.8
2017-Dec-12 22:00N 01°22' E 103°15'918.5
2017-Dec-12 21:30N 01°16' E 103°22'918.9
2017-Dec-12 21:00N 01°12' E 103°30'815.7
2017-Dec-12 20:30N 01°12' E 103°38'4 8.0
2017-Dec-12 20:00N 01°14' E 103°42'510.0
2017-Dec-12 19:30N 01°16' E 103°46'1 1.7
2017-Dec-12 18:58N 01°17' E 103°47'0 0.0
2017-Dec-12 18:28N 01°17' E 103°47'0 0.0
2017-Dec-12 17:58N 01°17' E 103°47'0 0.0
2017-Dec-12 17:28N 01°17' E 103°47'0 0.0
2017-Dec-12 16:58N 01°17' E 103°47'0 0.0
2017-Dec-12 16:28N 01°17' E 103°47'0 0.0
2017-Dec-12 15:58N 01°17' E 103°47'0 0.0
2017-Dec-12 15:28N 01°17' E 103°47'0 0.0
2017-Dec-12 14:58N 01°17' E 103°47'0 0.0
2017-Dec-12 14:28N 01°17' E 103°47'0 0.0
2017-Dec-12 13:58N 01°17' E 103°47'0 0.0
2017-Dec-12 13:25N 01°17' E 103°47'0 0.0
2017-Dec-12 12:58N 01°17' E 103°47'0 0.0
2017-Dec-12 12:28N 01°17' E 103°47'0 0.0
2017-Dec-12 11:58N 01°17' E 103°47'0 0.0
2017-Dec-12 11:19N 01°17' E 103°47'0 0.0
2017-Dec-12 10:58N 01°17' E 103°47'0 0.0
2017-Dec-12 10:28N 01°17' E 103°47'0 0.0
2017-Dec-12 09:58N 01°17' E 103°47'0 0.0
2017-Dec-12 09:28N 01°17' E 103°47'0 0.0
2017-Dec-12 08:58N 01°17' E 103°47'0 0.0
2017-Dec-12 08:28N 01°17' E 103°47'0 0.0
2017-Dec-12 07:58N 01°17' E 103°47'0 0.0
2017-Dec-12 07:28N 01°17' E 103°47'0 0.0
2017-Dec-12 06:58N 01°17' E 103°47'0 0.0
2017-Dec-12 06:28N 01°17' E 103°47'0 0.0
2017-Dec-12 05:58N 01°17' E 103°47'0 0.0
2017-Dec-12 05:28N 01°17' E 103°47'0 0.0
2017-Dec-12 04:58N 01°17' E 103°47'0 0.0
2017-Dec-12 04:28N 01°17' E 103°47'0 0.0
2017-Dec-12 03:58N 01°17' E 103°47'0 0.0
2017-Dec-12 03:25N 01°17' E 103°47'0 0.0
2017-Dec-12 02:58N 01°17' E 103°47'0 0.0
2017-Dec-12 02:28N 01°17' E 103°47'0 0.0
2017-Dec-12 01:55N 01°17' E 103°47'0 0.0
2017-Dec-12 01:28N 01°17' E 103°47'0 0.0
2017-Dec-12 00:58N 01°17' E 103°47'0 0.0
2017-Dec-12 00:28N 01°17' E 103°47'0 0.0
2017-Dec-11 23:58N 01°17' E 103°47'0 0.0
2017-Dec-11 23:25N 01°17' E 103°47'0 0.0
2017-Dec-11 22:52N 01°17' E 103°47'0 0.1
2017-Dec-11 22:28N 01°17' E 103°47'0 0.1
2017-Dec-11 21:58N 01°17' E 103°47'0 0.0
2017-Dec-11 21:28N 01°17' E 103°47'0 0.0
2017-Dec-11 20:58N 01°17' E 103°47'0 0.0
2017-Dec-11 20:28N 01°17' E 103°47'0 0.0
2017-Dec-11 19:58N 01°17' E 103°47'0 0.0
2017-Dec-11 19:28N 01°17' E 103°47'0 0.0
2017-Dec-11 18:58N 01°17' E 103°47'0 0.0
2017-Dec-11 18:28N 01°17' E 103°47'0 0.0
2017-Dec-11 17:55N 01°17' E 103°47'0 0.0
2017-Dec-11 17:28N 01°17' E 103°47'0 0.0
2017-Dec-11 16:58N 01°17' E 103°47'0 0.0
2017-Dec-11 16:28N 01°17' E 103°47'0 0.0
2017-Dec-11 15:58N 01°17' E 103°47'0 0.0
2017-Dec-11 15:28N 01°17' E 103°47'0 0.0
2017-Dec-11 14:58N 01°17' E 103°47'0 0.0
2017-Dec-11 14:28N 01°17' E 103°47'0 0.0
2017-Dec-11 13:58N 01°17' E 103°47'0 0.0
2017-Dec-11 13:25N 01°17' E 103°47'0 0.0
2017-Dec-11 13:00N 01°17' E 103°47'0 0.7
2017-Dec-11 12:30N 01°16' E 103°47'0 0.5
2017-Dec-11 12:00N 01°16' E 103°47'2 4.6
2017-Dec-11 11:30N 01°14' E 103°47'4 7.9
2017-Dec-11 11:00N 01°12' E 103°51'4 8.0
2017-Dec-11 10:30N 01°14' E 103°55'3 5.2
2017-Dec-11 10:00N 01°15' E 103°57'4 7.1
2017-Dec-11 09:30N 01°16' E 104°01'4 7.4
2017-Dec-11 08:59N 01°16' E 104°04'4 7.6
2017-Dec-11 08:29N 01°17' E 104°08'4 7.6
2017-Dec-11 07:58N 01°17' E 104°12'6 8.8
2017-Dec-11 07:14N 01°19' E 104°18'310.2
2017-Dec-11 06:55N 01°21' E 104°21'  
2017-Dec-06 03:00N 31°30' E 135°06'339 8.3 320 / 211020.0 5.4 12.0 6.217.0
2017-Dec-04 10:05N 35°36' E 139°46'0 0.0
2017-Dec-04 09:56N 35°36' E 139°46'0 0.0
2017-Dec-04 09:26N 35°36' E 139°46'0 0.0
2017-Dec-04 08:59N 35°36' E 139°46'0 0.0
2017-Dec-04 08:17N 35°36' E 139°46'0 0.0
2017-Dec-04 07:29N 35°36' E 139°46'0 0.0
2017-Dec-04 06:56N 35°36' E 139°46'0 0.0
2017-Dec-04 06:05N 35°36' E 139°46'0 0.0
2017-Dec-04 04:23N 35°36' E 139°46'0 0.0
2017-Dec-04 02:56N 35°36' E 139°46'0 0.0
2017-Dec-04 02:29N 35°36' E 139°46'0 0.0
2017-Dec-04 01:59N 35°36' E 139°46'0 0.0
2017-Dec-04 01:29N 35°36' E 139°46'0 0.0
2017-Dec-04 00:59N 35°36' E 139°46'0 0.0
2017-Dec-04 00:17N 35°36' E 139°46'0 0.0
2017-Dec-03 23:59N 35°36' E 139°46'0 0.0
2017-Dec-03 23:17N 35°36' E 139°46'0 0.0
2017-Dec-03 22:59N 35°36' E 139°46'0 0.0
2017-Dec-03 22:29N 35°36' E 139°46'0 0.0
2017-Dec-03 21:59N 35°36' E 139°46'0 0.0
2017-Dec-03 21:26N 35°36' E 139°46'0 0.0
2017-Dec-03 20:53N 35°36' E 139°46'0 0.0
2017-Dec-03 20:26N 35°36' E 139°46'0 0.0
2017-Dec-03 19:59N 35°36' E 139°46'0 0.0
2017-Dec-03 19:29N 35°36' E 139°46'0 0.0
2017-Dec-03 18:59N 35°36' E 139°46'0 0.0
2017-Dec-03 18:29N 35°36' E 139°46'0 0.0
2017-Dec-03 17:59N 35°36' E 139°46'0 0.0
2017-Dec-03 17:29N 35°36' E 139°46'0 0.0
2017-Dec-03 16:59N 35°36' E 139°46'0 0.0
2017-Dec-03 16:29N 35°36' E 139°46'0 0.0
2017-Dec-03 15:56N 35°36' E 139°46'0 0.0
2017-Dec-03 15:08N 35°36' E 139°46'0 0.0
2017-Dec-03 14:50N 35°36' E 139°46'0 0.0
2017-Dec-03 13:47N 35°36' E 139°46'0 0.0
2017-Dec-03 13:29N 35°36' E 139°46'1 1.1
2017-Dec-03 13:00N 35°35' E 139°47'4 8.0
2017-Dec-03 12:31N 35°33' E 139°51'510.0
2017-Dec-03 12:01N 35°28' E 139°51'714.6
2017-Dec-03 11:30N 35°22' E 139°45'611.5
2017-Dec-03 11:00N 35°17' E 139°46'612.2
2017-Dec-03 10:30N 35°11' E 139°47'510.2
2017-Dec-03 10:00N 35°06' E 139°45'918.7
2017-Dec-03 09:30N 34°57' E 139°40'919.0
2017-Dec-03 09:00N 34°48' E 139°36'1119.9
2017-Dec-03 08:26N 34°38' E 139°30'2721.2
2017-Dec-03 07:09N 34°33' E 138°58'621.0
2017-Dec-03 06:51N 34°33' E 138°50'720.1
2017-Dec-03 06:30N 34°38' E 138°44'1019.7
2017-Dec-03 06:00N 34°46' E 138°38'919.2
2017-Dec-03 05:31N 34°55' E 138°35'713.8
2017-Dec-03 05:00N 35°01' E 138°32'1 1.8
2017-Dec-03 04:30N 35°02' E 138°31'0 0.6
2017-Dec-03 03:59N 35°02' E 138°31'0 0.0
2017-Dec-03 03:29N 35°02' E 138°31'0 0.0
2017-Dec-03 02:59N 35°02' E 138°31'0 0.0
2017-Dec-03 02:29N 35°02' E 138°31'0 0.0
2017-Dec-03 01:59N 35°02' E 138°31'0 0.0
2017-Dec-03 01:29N 35°02' E 138°31'0 0.0
2017-Dec-03 00:56N 35°02' E 138°31'0 0.0
2017-Dec-03 00:29N 35°02' E 138°31'0 0.0
2017-Dec-02 23:56N 35°02' E 138°31'0 0.0
2017-Dec-02 23:29N 35°02' E 138°31'0 0.0
2017-Dec-02 22:59N 35°02' E 138°31'0 0.0
2017-Dec-02 22:29N 35°02' E 138°31'  

Dump ship's entire track history